Time;durP1;ratioP1;P1;durP2;ratioP2;P2;SDS_P1;SDS_P2;PMS_P1;PMS_P2;Temp;Humidity;BMP_temperature;BMP_pressure;BME280_temperature;BME280_humidity;BME280_pressure;Samples;Min_cycle;Max_cycle;Signal;HPM_P1;HPM_P2
2022/09/05 00:02:32;;;;;;;7.53;3.15;;;17.40;99.90;;;16.54;96.57;97792.81;4973879;28;20781;-73
2022/09/05 00:05:49;;;;;;;5.40;3.55;;;17.40;99.90;;;16.50;97.64;97794.47;4966499;28;20435;-73
2022/09/05 00:08:24;;;;;;;5.47;3.50;;;17.30;99.90;;;16.47;98.18;97789.69;4974111;28;20400;-73
2022/09/05 00:11:04;;;;;;;6.60;3.30;;;17.30;99.90;;;16.44;98.31;97792.13;4973913;28;20405;-73
2022/09/05 00:13:36;;;;;;;6.45;3.50;;;17.30;99.90;;;16.41;98.67;97792.66;4973371;28;20401;-73
2022/09/05 00:16:36;;;;;;;5.88;3.58;;;17.20;99.90;;;16.35;98.57;97785.78;4973934;28;20407;-72
2022/09/05 00:19:15;;;;;;;6.55;3.28;;;17.20;99.90;;;16.32;97.56;97788.97;4973799;28;20412;-73
2022/09/05 00:21:57;;;;;;;6.07;3.67;;;17.20;99.90;;;16.29;96.52;97778.88;4973677;28;20468;-72
2022/09/05 00:24:46;;;;;;;6.85;3.25;;;17.10;99.90;;;16.30;91.24;97775.13;4973290;28;20404;-73
2022/09/05 00:27:21;;;;;;;5.07;3.30;;;17.00;99.90;;;16.20;93.29;97778.66;4973768;28;20483;-73
2022/09/05 00:30:06;;;;;;;4.68;3.63;;;17.00;99.90;;;16.13;95.48;97780.84;4973513;28;20420;-73
2022/09/05 00:33:02;;;;;;;5.22;3.83;;;16.90;99.90;;;16.07;97.10;97780.09;4973333;28;20424;-73
2022/09/05 00:35:46;;;;;;;6.63;3.60;;;16.90;99.90;;;16.08;98.02;97775.53;4973525;28;20944;-73
2022/09/05 00:38:17;;;;;;;7.03;3.50;;;16.90;99.90;;;16.08;98.43;97770.19;4973589;28;20404;-73
2022/09/05 00:40:47;;;;;;;9.38;3.17;;;16.90;99.90;;;16.08;98.52;97763.00;4973315;28;20412;-73
2022/09/05 00:43:18;;;;;;;9.00;3.10;;;16.90;99.90;;;16.09;97.00;97766.44;4972943;28;20399;-73
2022/09/05 00:45:52;;;;;;;6.32;3.38;;;16.90;99.90;;;16.09;93.72;97775.25;4973458;28;20532;-73
2022/09/05 00:48:33;;;;;;;5.72;3.22;;;16.90;99.90;;;16.01;93.36;97772.38;4973384;28;20435;-73
2022/09/05 00:51:21;;;;;;;5.38;3.00;;;16.80;99.90;;;15.95;96.63;97774.25;4973158;28;20889;-73
2022/09/05 00:54:11;;;;;;;4.65;3.20;;;16.80;99.90;;;15.93;96.71;97772.97;4972710;28;20417;-73
2022/09/05 00:57:01;;;;;;;6.85;3.47;;;16.80;99.90;;;15.89;97.95;97780.72;4973194;28;20416;-73
2022/09/05 01:00:09;;;;;;;5.77;3.40;;;16.70;99.90;;;15.88;98.55;97792.44;4972107;28;20412;-73
2022/09/05 01:03:08;;;;;;;6.97;3.67;;;16.70;99.90;;;15.87;99.12;97796.19;4972797;28;20482;-73
2022/09/05 01:06:13;;;;;;;4.53;3.22;;;16.70;99.90;;;15.86;98.29;97789.28;4973082;28;20432;-73
2022/09/05 01:09:16;;;;;;;6.72;3.40;;;16.70;99.90;;;15.83;98.27;97790.63;4971750;28;20772;-73
2022/09/05 01:12:00;;;;;;;5.75;3.40;;;16.70;99.90;;;15.82;98.01;97786.34;4972873;28;20885;-73
2022/09/05 01:14:46;;;;;;;7.57;3.90;;;16.60;99.90;;;15.81;97.35;97786.63;4972344;28;20400;-72
2022/09/05 01:17:34;;;;;;;7.13;3.20;;;16.60;99.90;;;15.85;93.63;97787.69;4972706;28;20396;-73
2022/09/05 01:20:15;;;;;;;5.38;3.40;;;16.60;99.90;;;15.73;96.25;97788.00;4972661;28;20412;-73
2022/09/05 01:23:16;;;;;;;4.75;3.30;;;16.60;99.90;;;15.70;96.92;97777.88;4972284;28;20431;-73
2022/09/05 01:26:27;;;;;;;6.57;3.60;;;16.50;99.90;;;15.66;98.74;97762.66;4972763;28;20487;-73
2022/09/05 01:29:00;;;;;;;7.38;3.40;;;16.50;99.90;;;15.69;97.92;97768.28;4972532;28;20897;-73
2022/09/05 01:31:36;;;;;;;6.65;3.70;;;16.50;99.90;;;15.66;98.50;97774.16;4972397;28;20508;-73
2022/09/05 01:34:11;;;;;;;6.18;3.58;;;16.50;99.90;;;15.66;97.60;97771.47;4972147;28;20484;-73
2022/09/05 01:36:51;;;;;;;6.80;3.70;;;16.50;99.90;;;15.62;98.03;97769.63;4972534;28;20794;-73
2022/09/05 01:39:27;;;;;;;4.95;3.65;;;16.50;99.90;;;15.59;98.84;97762.97;4972398;28;20415;-73
2022/09/05 01:42:06;;;;;;;4.32;2.80;;;16.40;99.90;;;15.62;96.82;97757.09;4972202;28;20434;-73
2022/09/05 01:44:50;;;;;;;5.85;3.60;;;16.40;99.90;;;15.55;96.88;97759.25;4972000;28;20392;-73
2022/09/05 01:47:37;;;;;;;7.15;3.15;;;16.40;99.90;;;15.57;92.84;97772.31;4972211;28;20400;-73
2022/09/05 01:50:24;;;;;;;6.20;3.10;;;16.30;99.90;;;15.49;93.06;97766.44;4972222;28;20491;-73
2022/09/05 01:53:09;;;;;;;5.40;3.70;;;16.30;99.90;;;15.44;96.75;97763.81;4971644;28;20490;-73
2022/09/05 01:56:20;;;;;;;7.80;3.60;;;16.30;99.90;;;15.49;95.22;97765.63;4972117;28;20400;-73
2022/09/05 01:59:03;;;;;;;5.97;3.77;;;16.30;99.90;;;15.41;96.70;97763.56;4965670;28;20420;-73
2022/09/05 02:01:50;;;;;;;4.60;3.70;;;16.20;99.90;;;15.41;98.34;97763.56;4984611;23;20636;-75
2022/09/05 02:04:56;;;;;;;5.90;3.70;;;16.30;99.90;;;15.43;99.25;97769.41;4969772;28;20408;-75
2022/09/05 02:07:36;;;;;;;5.70;4.00;;;16.30;99.90;;;15.43;100.00;97769.41;4971710;28;20404;-76
2022/09/05 02:10:45;;;;;;;7.95;3.65;;;16.30;99.90;;;15.46;100.00;97771.53;4971945;28;20412;-75
2022/09/05 02:13:22;;;;;;;5.63;3.50;;;16.30;99.90;;;15.48;99.35;97764.88;4952066;29;20409;-75
2022/09/05 02:16:00;;;;;;;4.90;3.55;;;16.30;99.90;;;15.46;100.00;97763.53;4952586;29;20417;-75
2022/09/05 02:18:46;;;;;;;4.05;3.45;;;16.30;99.90;;;15.46;100.00;97760.88;4952578;29;20501;-76
2022/09/05 02:21:23;;;;;;;6.43;3.70;;;16.30;99.90;;;15.47;100.00;97757.13;4952330;29;20879;-76
2022/09/05 02:24:04;;;;;;;6.55;3.35;;;16.30;99.90;;;15.47;99.33;97759.81;4952014;29;20776;-76
2022/09/05 02:26:38;;;;;;;6.97;3.33;;;16.30;99.90;;;15.44;98.48;97753.13;4952397;29;20497;-76
2022/09/05 02:29:15;;;;;;;5.65;3.40;;;16.30;99.90;;;15.40;99.38;97761.97;4952453;29;20469;-76
2022/09/05 02:31:47;;;;;;;6.18;3.80;;;16.30;99.90;;;15.37;100.00;97755.28;4952381;29;20860;-76
2022/09/05 02:34:26;;;;;;;5.45;3.75;;;16.20;99.90;;;15.36;100.00;97751.03;4951954;29;20406;-76
2022/09/05 02:37:04;;;;;;;7.47;3.85;;;16.20;99.90;;;15.38;100.00;97753.44;4952514;29;20764;-76
2022/09/05 02:39:43;;;;;;;8.63;3.47;;;16.20;99.90;;;15.36;98.50;97747.56;4935175;29;20406;-76
2022/09/05 02:42:21;;;;;;;7.07;3.93;;;16.20;99.90;;;15.32;96.95;97765.19;4952163;29;20538;-76
2022/09/05 02:45:00;;;;;;;5.53;3.70;;;16.10;99.90;;;15.30;98.83;97759.31;4934651;29;20406;-77
2022/09/05 02:47:34;;;;;;;5.82;3.90;;;16.10;99.90;;;15.29;99.46;97761.19;4952455;29;20448;-76
2022/09/05 02:50:30;;;;;;;6.80;3.83;;;16.10;99.90;;;15.32;99.49;97759.84;4952374;29;20420;-75
2022/09/05 02:52:58;;;;;;;8.27;3.72;;;16.10;99.90;;;15.30;99.12;97762.78;4951681;29;20410;-75
2022/09/05 02:55:35;;;;;;;5.75;3.60;;;16.10;99.90;;;15.29;99.90;97760.38;4952265;29;20454;-74
2022/09/05 02:58:29;;;;;;;7.30;4.50;;;16.20;99.90;;;15.30;99.69;97760.13;4952242;29;20402;-75
2022/09/05 03:01:08;;;;;;;5.95;3.42;;;16.10;99.90;;;15.32;99.05;97755.31;4952055;29;21136;-75
2022/09/05 03:03:42;;;;;;;6.30;4.13;;;16.20;99.90;;;15.30;99.94;97748.66;4951653;29;20436;-75
2022/09/05 03:06:27;;;;;;;5.03;3.58;;;16.10;99.90;;;15.32;100.00;97743.84;4952085;29;20441;-75
2022/09/05 03:09:10;;;;;;;5.80;3.90;;;16.20;99.90;;;15.30;100.00;97748.66;4952087;29;20405;-75
2022/09/05 03:12:22;;;;;;;11.32;3.90;;;16.10;99.90;;;15.32;100.00;97755.31;4952158;29;20402;-75
2022/09/05 03:15:36;;;;;;;6.05;3.90;;;16.10;99.90;;;15.31;100.00;97758.25;4951620;29;20445;-75
2022/09/05 03:18:30;;;;;;;6.53;4.40;;;16.20;99.90;;;15.29;100.00;97752.38;4952045;29;20437;-74
2022/09/05 03:21:57;;;;;;;7.10;3.80;;;16.10;99.90;;;15.29;98.89;97747.84;4951876;29;20469;-75
2022/09/05 03:24:56;;;;;;;4.95;3.85;;;16.10;99.90;;;15.25;99.44;97740.69;4934170;29;20418;-74
2022/09/05 03:28:27;;;;;;;8.27;3.92;;;16.10;99.90;;;15.22;100.00;97744.69;4955493;29;20442;-74
2022/09/05 03:31:23;;;;;;;7.22;3.58;;;16.10;99.90;;;15.18;96.21;97742.84;4877399;29;20427;-75
2022/09/05 03:34:54;;;;;;;5.40;3.77;;;16.00;99.90;;;15.14;95.97;97752.44;4954920;29;20406;-74
2022/09/05 03:37:55;;;;;;;6.80;3.70;;;16.00;99.90;;;15.11;97.45;97748.44;4955331;29;20421;-73
2022/09/05 03:40:54;;;;;;;5.25;3.80;;;15.90;99.90;;;15.07;98.53;97748.19;4955185;29;20894;-74
2022/09/05 03:43:39;;;;;;;7.40;3.50;;;15.90;99.90;;;15.09;99.50;97753.25;4954638;29;20908;-74
2022/09/05 03:46:24;;;;;;;8.25;4.03;;;15.90;99.90;;;15.05;99.64;97747.66;4955189;29;20437;-75
2022/09/05 03:49:35;;;;;;;6.47;3.90;;;15.90;99.90;;;15.03;100.00;97752.47;4955137;29;20788;-75
2022/09/05 03:52:13;;;;;;;5.38;3.53;;;15.90;99.90;;;15.04;100.00;97751.38;4943778;29;20418;-75
2022/09/05 03:55:19;;;;;;;6.47;3.85;;;15.90;99.90;;;15.02;100.00;97755.41;4954436;29;20433;-75
2022/09/05 03:58:33;;;;;;;4.82;3.60;;;15.90;99.90;;;15.00;98.68;97749.53;4954956;29;20417;-75
2022/09/05 04:01:06;;;;;;;6.25;3.72;;;15.90;99.90;;;14.96;100.00;97754.59;4954703;29;20410;-75
2022/09/05 04:03:42;;;;;;;4.90;3.70;;;15.80;99.90;;;14.98;100.00;97754.34;4954430;29;20408;-76
2022/09/05 04:06:17;;;;;;;9.85;4.38;;;15.80;99.90;;;14.95;100.00;97750.34;4954626;29;20410;-74
2022/09/05 04:08:50;;;;;;;8.93;4.10;;;15.80;99.90;;;14.93;100.00;97755.16;4954725;29;20436;-74
2022/09/05 04:11:29;;;;;;;5.85;4.03;;;15.80;99.90;;;14.90;100.00;97749.53;4954749;29;20501;-75
2022/09/05 04:13:58;;;;;;;5.15;3.95;;;15.80;99.90;;;14.91;100.00;97745.81;4954165;29;20405;-76
2022/09/05 04:16:29;;;;;;;6.50;3.95;;;15.80;99.90;;;14.91;100.00;97751.94;4954639;29;20412;-76
2022/09/05 04:19:09;;;;;;;6.88;4.20;;;15.80;99.90;;;14.90;100.00;97760.22;4937466;29;20835;-76
2022/09/05 04:21:43;;;;;;;6.97;3.85;;;15.70;99.90;;;14.90;100.00;97752.22;4954446;29;20861;-76
2022/09/05 04:24:16;;;;;;;5.82;3.92;;;15.80;99.90;;;14.89;100.00;97751.41;4953978;29;20406;-76
2022/09/05 04:27:30;;;;;;;6.88;3.72;;;15.70;99.90;;;14.89;99.57;97754.06;4954484;29;20884;-75
2022/09/05 04:30:02;;;;;;;7.20;4.18;;;15.70;99.90;;;14.83;100.00;97749.03;4954403;29;20441;-75
2022/09/05 04:32:46;;;;;;;7.90;3.83;;;15.70;99.90;;;14.83;100.00;97746.38;4954049;29;20398;-76
2022/09/05 04:35:31;;;;;;;7.07;4.03;;;15.70;99.90;;;14.81;100.00;97751.19;4937032;29;20777;-75
2022/09/05 04:38:09;;;;;;;9.15;4.43;;;15.70;99.90;;;14.80;100.00;97753.06;4954389;29;20403;-75
2022/09/05 04:40:45;;;;;;;5.93;4.10;;;15.70;99.90;;;14.80;100.00;97754.91;4954071;29;20417;-75
2022/09/05 04:43:26;;;;;;;7.18;4.13;;;15.70;99.90;;;14.78;100.00;97757.03;4953470;29;20453;-74
2022/09/05 04:45:58;;;;;;;8.40;4.28;;;15.70;99.90;;;14.75;100.00;97763.69;4953860;29;20888;-75
2022/09/05 04:48:31;;;;;;;6.05;3.65;;;15.60;99.90;;;14.78;100.00;97767.69;4954157;29;20406;-74
2022/09/05 04:51:07;;;;;;;5.05;4.00;;;15.60;99.90;;;14.78;100.00;97770.38;4953811;29;20493;-74
2022/09/05 04:54:03;;;;;;;6.07;3.75;;;15.60;99.90;;;14.73;100.00;97769.28;4952221;29;20414;-75
2022/09/05 04:56:33;;;;;;;6.18;3.90;;;15.60;99.90;;;14.72;100.00;97772.25;4953751;29;20880;-74
2022/09/05 04:59:12;;;;;;;7.75;4.13;;;15.60;99.90;;;14.73;100.00;97775.72;4953153;29;21574;-73
2022/09/05 05:01:47;;;;;;;7.37;4.20;;;15.60;99.90;;;14.75;100.00;97774.34;4953466;29;20460;-72
2022/09/05 05:04:18;;;;;;;6.72;3.60;;;15.60;99.90;;;14.78;100.00;97781.81;4953359;29;20496;-72
2022/09/05 05:06:53;;;;;;;12.90;4.80;;;15.60;99.90;;;14.76;100.00;97775.16;4953679;29;20874;-72
2022/09/05 05:09:25;;;;;;;5.88;3.70;;;15.60;99.90;;;14.76;100.00;97775.97;4953635;29;20764;-73
2022/09/05 05:11:56;;;;;;;4.60;3.70;;;15.60;99.90;;;14.75;100.00;97779.69;4953352;29;20974;-74
2022/09/05 05:14:31;;;;;;;6.93;4.50;;;15.60;99.90;;;14.72;100.00;97782.91;4953285;29;20745;-73
2022/09/05 05:17:05;;;;;;;6.18;3.97;;;15.60;99.90;;;14.75;100.00;97786.88;4953553;29;20416;-74
2022/09/05 05:19:37;;;;;;;5.63;4.20;;;15.60;99.90;;;14.77;100.00;97782.88;4953176;29;20832;-73
2022/09/05 05:22:05;;;;;;;7.47;4.53;;;15.60;99.90;;;14.80;100.00;97785.03;4950904;29;20465;-73
2022/09/05 05:24:34;;;;;;;8.43;4.27;;;15.70;99.90;;;14.82;100.00;97792.72;4952128;29;20464;-73
2022/09/05 05:27:09;;;;;;;4.82;4.10;;;15.70;99.90;;;14.85;100.00;97797.53;4943925;29;20402;-72
2022/09/05 05:29:47;;;;;;;7.97;5.07;;;15.70;99.90;;;14.91;100.00;97788.47;4934214;29;20408;-73
2022/09/05 05:32:22;;;;;;;10.43;5.30;;;15.70;99.90;;;14.95;100.00;97793.00;4934036;29;20469;-72
2022/09/05 05:34:53;;;;;;;8.98;4.70;;;15.70;99.90;;;14.98;100.00;97792.44;4947642;29;20401;-73
2022/09/05 05:37:28;;;;;;;7.43;5.15;;;15.80;99.90;;;15.02;100.00;97793.53;4952382;29;20401;-73
2022/09/05 05:40:07;;;;;;;12.73;4.90;;;15.80;99.90;;;15.05;100.00;97795.63;4934780;29;21005;-73
2022/09/05 05:42:36;;;;;;;7.38;4.10;;;15.90;99.90;;;15.07;100.00;97804.19;4935420;29;20433;-73
2022/09/05 05:45:14;;;;;;;6.07;4.45;;;15.90;99.90;;;15.10;100.00;97805.50;4948862;28;20429;-73
2022/09/05 05:47:43;;;;;;;6.95;4.38;;;15.90;99.90;;;15.14;100.00;97805.75;4951754;29;20410;-74
2022/09/05 05:50:29;;;;;;;6.60;4.32;;;16.00;99.90;;;15.18;100.00;97801.50;4952177;29;20468;-74
2022/09/05 05:53:25;;;;;;;8.27;4.80;;;16.00;99.90;;;15.23;100.00;97809.47;4951139;29;20561;-74
2022/09/05 05:56:14;;;;;;;6.28;4.28;;;16.00;99.90;;;15.29;100.00;97805.72;4951502;29;20476;-73
2022/09/05 05:59:18;;;;;;;8.10;4.45;;;16.10;99.90;;;15.33;100.00;97810.28;4952534;29;20398;-74
2022/09/05 06:02:28;;;;;;;4.97;3.70;;;16.10;99.90;;;15.39;100.00;97811.84;4935324;29;20426;-73
2022/09/05 06:05:56;;;;;;;8.32;4.20;;;16.20;99.90;;;15.42;100.00;97813.97;4952363;29;20489;-74
2022/09/05 06:08:53;;;;;;;6.65;4.30;;;16.20;99.90;;;15.44;100.00;97821.69;4948728;29;20422;-73
2022/09/05 06:11:54;;;;;;;5.78;4.15;;;16.20;99.90;;;15.45;100.00;97824.09;4950828;29;20407;-72
2022/09/05 06:14:56;;;;;;;5.32;4.20;;;16.30;99.90;;;15.46;100.00;97824.91;4951455;29;20914;-73
2022/09/05 06:18:06;;;;;;;6.53;4.28;;;16.30;99.90;;;15.45;100.00;97824.09;4947436;29;20433;-75
2022/09/05 06:21:09;;;;;;;8.63;4.20;;;16.30;99.90;;;15.49;100.00;97827.81;4947635;29;20451;-75
2022/09/05 06:24:35;;;;;;;6.23;4.10;;;16.20;99.90;;;15.53;100.00;97827.28;4925811;29;20437;-73
2022/09/05 06:27:37;;;;;;;5.72;3.65;;;16.30;99.90;;;15.57;100.00;97829.16;4952072;29;20444;-73
2022/09/05 06:30:08;;;;;;;5.72;3.63;;;16.30;99.90;;;15.61;100.00;97818.75;4942526;28;20755;-73
2022/09/05 06:33:01;;;;;;;4.90;3.72;;;16.40;99.90;;;15.65;100.00;97817.91;4954073;28;20906;-74
2022/09/05 06:35:38;;;;;;;6.40;4.10;;;16.40;99.90;;;15.69;100.00;97818.19;4971368;28;20412;-76
2022/09/05 06:38:26;;;;;;;5.35;3.75;;;16.40;99.90;;;15.74;100.00;97823.50;4971505;28;20492;-74
2022/09/05 06:41:08;;;;;;;7.03;3.77;;;16.50;99.90;;;15.80;100.00;97822.38;4971374;28;20410;-76
2022/09/05 06:44:13;;;;;;;6.05;3.78;;;16.50;99.90;;;15.87;100.00;97823.69;4970881;28;20424;-75
2022/09/05 06:46:41;;;;;;;7.03;3.97;;;16.60;99.90;;;15.95;100.00;97822.31;4933170;29;20404;-74
2022/09/05 06:49:16;;;;;;;9.95;4.10;;;16.70;99.90;;;15.99;100.00;97820.72;4915939;29;20411;-73
2022/09/05 06:52:47;;;;;;;7.88;4.00;;;16.70;99.90;;;16.08;100.00;97824.41;4932994;29;20403;-73
2022/09/05 06:55:46;;;;;;;4.75;3.45;;;16.80;99.90;;;16.15;100.00;97826.78;4918221;28;20422;-74
2022/09/05 06:59:05;;;;;;;5.72;3.83;;;16.90;99.90;;;16.19;100.00;97827.81;4949481;28;20933;-75
2022/09/05 07:01:45;;;;;;;7.75;3.88;;;16.90;99.90;;;16.23;100.00;97827.00;4949820;29;20507;-73
2022/09/05 07:04:31;;;;;;;6.78;3.97;;;17.00;99.90;;;16.30;100.00;97823.22;4950565;29;20410;-75
2022/09/05 07:07:12;;;;;;;4.90;3.45;;;17.00;99.90;;;16.35;100.00;97825.84;4936697;29;20422;-75
2022/09/05 07:09:58;;;;;;;5.20;3.75;;;17.10;99.90;;;16.42;100.00;97829.81;4944182;28;20504;-74
2022/09/05 07:12:28;;;;;;;6.70;4.00;;;17.10;99.90;;;16.49;100.00;97829.50;4954074;29;20410;-73
2022/09/05 07:15:05;;;;;;;8.35;4.07;;;17.20;99.90;;;16.57;100.00;97823.56;4950730;29;20887;-73
2022/09/05 07:17:46;;;;;;;4.82;3.83;;;17.30;99.90;;;16.68;100.00;97821.66;4949989;29;20750;-73
2022/09/05 07:20:21;;;;;;;7.10;4.15;;;17.40;99.90;;;16.78;100.00;97827.69;4952666;29;20408;-74
2022/09/05 07:22:58;;;;;;;4.88;3.50;;;17.50;99.90;;;16.88;100.00;97824.94;4972118;28;20761;-74
2022/09/05 07:25:30;;;;;;;7.38;3.70;;;17.60;99.90;;;16.99;100.00;97825.63;4966345;28;20487;-76
2022/09/05 07:28:02;;;;;;;6.85;3.72;;;17.60;99.90;;;17.08;99.36;97828.50;4960571;28;20409;-74
2022/09/05 07:30:30;;;;;;;6.57;3.37;;;17.70;99.90;;;17.19;98.71;97830.81;4960216;28;20520;-73
2022/09/05 07:33:00;;;;;;;6.13;3.33;;;17.80;99.90;;;17.33;97.57;97823.72;4956458;28;21014;-74
2022/09/05 07:35:30;;;;;;;6.40;3.33;;;18.00;99.90;;;17.42;97.38;97826.56;4955368;29;20602;-74
2022/09/05 07:38:05;;;;;;;7.00;3.28;;;18.10;99.90;;;17.49;96.95;97821.69;4954783;29;20402;-74
2022/09/05 07:40:35;;;;;;;6.97;3.43;;;18.10;99.90;;;17.55;95.99;97820.53;4937893;29;20502;-73
2022/09/05 07:43:06;;;;;;;6.18;3.22;;;18.20;99.90;;;17.62;95.28;97820.22;4953995;29;20425;-74
2022/09/05 07:45:41;;;;;;;5.25;3.08;;;18.30;99.90;;;17.70;88.44;97817.72;4957661;28;20427;-74
2022/09/05 07:48:13;;;;;;;4.50;2.60;;;18.40;99.90;;;17.87;87.39;97829.84;4974320;28;20392;-73
2022/09/05 07:50:50;;;;;;;6.60;2.60;;;18.50;99.90;;;18.06;79.93;97825.28;4956888;28;20445;-73
2022/09/05 07:53:18;;;;;;;3.90;2.43;;;18.80;99.90;;;18.26;83.13;97816.19;4962834;28;20414;-74
2022/09/05 07:55:49;;;;;;;3.92;2.22;;;18.90;99.90;;;18.49;83.74;97815.31;4954403;29;20421;-74
2022/09/05 07:58:19;;;;;;;2.95;2.28;;;19.10;99.90;;;18.58;82.55;97824.31;4947903;29;20421;-76
2022/09/05 08:00:51;;;;;;;4.38;2.50;;;19.20;99.90;;;18.68;84.83;97824.16;4953895;29;20412;-74
2022/09/05 08:03:25;;;;;;;2.88;2.33;;;19.30;99.90;;;18.75;85.44;97829.94;4950362;29;20454;-73
2022/09/05 08:05:54;;;;;;;5.57;2.60;;;19.30;99.90;;;18.79;80.30;97832.84;4954364;29;20800;-74
2022/09/05 08:08:26;;;;;;;4.45;2.42;;;19.40;99.90;;;18.88;81.24;97826.50;4952355;28;20573;-74
2022/09/05 08:10:55;;;;;;;5.47;2.40;;;19.50;99.90;;;18.93;83.11;97828.31;4945156;29;20738;-72
2022/09/05 08:13:26;;;;;;;3.50;2.33;;;19.50;99.90;;;18.95;83.18;97829.59;4944999;29;20489;-74
2022/09/05 08:15:57;;;;;;;3.50;2.35;;;19.60;99.90;;;19.05;75.95;97825.16;4947144;29;20425;-74
2022/09/05 08:18:36;;;;;;;2.90;2.20;;;19.80;99.90;;;19.17;76.07;97833.56;4942184;29;20501;-74
2022/09/05 08:21:10;;;;;;;7.38;2.63;;;19.80;99.90;;;19.24;74.42;97825.91;4938806;29;20409;-74
2022/09/05 08:23:55;;;;;;;5.10;2.40;;;19.90;99.90;;;19.37;72.52;97821.63;4953489;29;20421;-76
2022/09/05 08:26:34;;;;;;;4.85;2.20;;;20.10;99.90;;;19.55;74.53;97824.25;4949085;29;20429;-76
2022/09/05 08:29:09;;;;;;;5.45;2.42;;;20.20;99.90;;;19.60;70.96;97818.81;4947083;29;20430;-75
2022/09/05 08:31:41;;;;;;;2.75;2.40;;;20.30;99.90;;;19.74;75.10;97824.16;4953698;29;20421;-73
2022/09/05 08:34:12;;;;;;;6.15;2.88;;;20.30;99.90;;;19.77;76.05;97817.41;4953282;29;20903;-72
2022/09/05 08:36:45;;;;;;;4.75;2.58;;;20.40;99.90;;;19.81;76.42;97824.56;4953903;29;20413;-72
2022/09/05 08:39:17;;;;;;;4.57;2.33;;;20.40;99.90;;;19.84;75.25;97823.19;4953453;29;20417;-73
2022/09/05 08:42:06;;;;;;;4.57;2.40;;;20.40;99.90;;;19.84;72.82;97809.75;4953478;29;20553;-73
2022/09/05 08:44:37;;;;;;;3.42;2.20;;;20.50;99.90;;;19.98;74.76;97819.38;4952442;29;20418;-72
2022/09/05 08:47:23;;;;;;;4.93;2.87;;;20.60;99.90;;;20.04;73.82;97812.78;4953049;29;20413;-74
2022/09/05 08:50:09;;;;;;;3.57;2.20;;;20.70;99.90;;;20.19;76.44;97819.72;4935720;29;20418;-73
2022/09/05 08:52:53;;;;;;;6.88;2.70;;;20.70;99.90;;;20.26;78.36;97816.63;4953624;29;20426;-73
2022/09/05 08:55:33;;;;;;;4.43;2.42;;;20.80;99.90;;;20.31;79.27;97819.19;4947209;29;20417;-72
2022/09/05 08:58:09;;;;;;;4.35;2.30;;;20.80;99.90;;;20.33;79.31;97812.44;4953028;29;20479;-75
2022/09/05 09:00:44;;;;;;;7.55;2.47;;;20.90;99.90;;;20.39;74.99;97813.13;4948106;29;20426;-74
2022/09/05 09:03:20;;;;;;;5.32;2.30;;;20.90;99.90;;;20.48;77.94;97817.47;4939064;28;20435;-72
2022/09/05 09:06:51;;;;;;;7.70;2.30;;;21.00;99.90;;;20.53;75.27;97810.38;4969015;28;20776;-76
2022/09/05 09:09:33;;;;;;;5.75;2.50;;;21.10;99.90;;;20.62;77.95;97813.94;4909324;29;20429;-71
2022/09/05 09:12:11;;;;;;;7.20;2.80;;;21.20;99.90;;;20.75;79.56;97813.09;4948219;29;20464;-73
2022/09/05 09:14:59;;;;;;;4.95;1.98;;;21.20;99.90;;;20.83;79.48;97812.34;4952687;29;20844;-74
2022/09/05 09:17:41;;;;;;;8.45;2.60;;;21.30;99.90;;;20.85;77.76;97807.44;4952135;29;20422;-74
2022/09/05 09:20:37;;;;;;;5.35;2.30;;;21.30;99.90;;;20.91;73.96;97814.28;4934417;29;20448;-73
2022/09/05 09:23:07;;;;;;;5.10;2.22;;;21.40;99.90;;;21.09;74.11;97805.22;4951298;29;20904;-74
2022/09/05 09:25:42;;;;;;;6.15;2.03;;;21.60;99.90;;;21.15;71.76;97801.28;4952862;29;20477;-76
2022/09/05 09:28:42;;;;;;;6.90;2.65;;;21.70;99.90;;;21.17;66.97;97804.50;4969599;28;20408;-77
2022/09/05 09:31:20;;;;;;;5.57;2.10;;;21.80;97.80;;;21.29;66.51;97801.22;4964342;28;20413;-74
2022/09/05 09:33:58;;;;;;;5.75;2.58;;;21.90;96.20;;;21.31;64.94;97801.72;4952739;29;20927;-73
2022/09/05 09:36:53;;;;;;;4.00;2.10;;;22.00;94.40;;;21.57;66.90;97799.94;4953000;29;20410;-74
2022/09/05 09:39:32;;;;;;;5.10;2.30;;;22.10;96.20;;;21.60;70.92;97802.00;4952638;29;20797;-75
2022/09/05 09:42:32;;;;;;;6.97;2.58;;;22.10;99.90;;;21.64;66.51;97799.47;4952661;29;20915;-76
2022/09/05 09:45:29;;;;;;;3.22;2.30;;;22.20;94.90;;;21.87;66.00;97795.59;4962794;28;20405;-76
2022/09/05 09:48:36;;;;;;;3.40;2.15;;;22.40;95.50;;;21.83;68.79;97788.41;4933862;29;20486;-75
2022/09/05 09:51:38;;;;;;;4.97;2.47;;;22.30;97.60;;;21.89;69.65;97787.97;4933852;29;20412;-75
2022/09/05 09:54:36;;;;;;;7.87;2.37;;;22.30;98.90;;;21.93;71.84;97785.44;4939220;28;20416;-76
2022/09/05 09:57:37;;;;;;;6.88;2.60;;;22.40;99.90;;;22.03;73.00;97790.53;4972135;28;20968;-79
2022/09/05 10:00:13;;;;;;;4.35;2.60;;;22.40;99.90;;;22.17;74.20;97782.34;4972131;28;20412;-74
2022/09/05 10:03:20;;;;;;;6.80;2.70;;;22.60;99.90;;;22.32;73.96;97784.56;4954127;28;20943;-75
2022/09/05 10:06:25;;;;;;;4.30;2.70;;;22.70;99.90;;;22.46;72.71;97781.69;4962681;28;20466;-78
2022/09/05 10:09:22;;;;;;;4.68;2.25;;;22.90;99.90;;;22.64;72.61;97785.94;4930055;29;20422;-76
2022/09/05 10:12:55;;;;;;;6.75;2.30;;;23.10;99.90;;;22.84;72.36;97789.94;4933298;29;20773;-75
2022/09/05 10:15:27;;;;;;;5.63;2.30;;;23.30;99.90;;;22.93;71.18;97785.31;4912135;29;20496;-75
2022/09/05 10:18:34;;;;;;;5.30;2.45;;;23.40;99.90;;;23.12;69.75;97789.22;4963626;28;20403;-76
2022/09/05 10:21:36;;;;;;;6.57;2.50;;;23.50;99.90;;;23.10;61.57;97785.25;4903031;29;20955;-75
2022/09/05 10:25:02;;;;;;;5.93;2.45;;;23.60;91.30;;;23.26;62.75;97791.72;4943980;29;20444;-76
2022/09/05 10:27:52;;;;;;;4.65;2.20;;;23.70;93.40;;;23.55;66.23;97780.19;4941946;29;20414;-75
2022/09/05 10:30:22;;;;;;;2.92;2.15;;;23.90;94.90;;;23.70;67.26;97782.34;4951699;29;20476;-77
2022/09/05 10:33:24;;;;;;;5.60;2.38;;;24.00;96.50;;;23.87;69.30;97773.34;4936345;29;20409;-80
2022/09/05 10:35:59;;;;;;;2.67;2.10;;;24.20;98.90;;;23.96;67.33;97771.38;4951608;29;20504;-77
2022/09/05 10:38:39;;;;;;;4.90;2.30;;;24.30;96.90;;;24.04;68.83;97756.22;4947777;29;20440;-77
2022/09/05 10:41:10;;;;;;;4.75;2.08;;;24.40;98.50;;;24.13;69.51;97751.53;4947137;29;20773;-77
2022/09/05 10:43:49;;;;;;;2.92;1.92;;;24.40;99.20;;;24.15;67.96;97747.34;4948042;29;20433;-78
2022/09/05 10:46:28;;;;;;;3.97;1.90;;;24.50;97.30;;;24.28;67.54;97745.56;4947903;29;20499;-75
2022/09/05 10:49:03;;;;;;;5.32;1.80;;;24.60;97.80;;;24.17;56.99;97747.03;4948924;29;20426;-74
2022/09/05 10:51:38;;;;;;;2.15;1.75;;;24.60;83.50;;;24.29;60.52;97734.38;4945251;29;20907;-75
2022/09/05 10:54:36;;;;;;;4.43;2.13;;;24.60;87.80;;;24.45;64.78;97733.78;4949839;29;20469;-75
2022/09/05 10:57:20;;;;;;;3.88;2.10;;;24.80;92.50;;;24.56;64.76;97740.38;4946277;29;20808;-74
2022/09/05 11:00:06;;;;;;;3.28;1.80;;;24.80;93.10;;;24.65;61.13;97736.47;4944789;29;20508;-75
2022/09/05 11:02:40;;;;;;;6.80;1.92;;;25.00;89.90;;;24.79;61.99;97740.78;4947233;29;20423;-74
2022/09/05 11:05:21;;;;;;;5.70;2.00;;;25.10;90.20;;;24.88;62.44;97727.94;4949030;29;20413;-74
2022/09/05 11:08:03;;;;;;;3.85;2.00;;;25.20;90.60;;;25.17;60.05;97729.69;4951193;29;20424;-74
2022/09/05 11:10:36;;;;;;;4.03;2.25;;;25.40;90.20;;;25.13;61.87;97732.28;4937171;29;20505;-75
2022/09/05 11:13:14;;;;;;;4.85;2.22;;;25.40;90.20;;;25.08;54.20;97726.31;4950910;29;20414;-73
2022/09/05 11:16:09;;;;;;;4.47;2.03;;;25.50;78.80;;;25.17;56.62;97727.78;4951098;29;20425;-74
2022/09/05 11:18:54;;;;;;;3.15;2.03;;;25.50;82.70;;;25.28;59.10;97728.13;4951575;29;20867;-74
2022/09/05 11:21:38;;;;;;;5.27;2.00;;;25.60;88.10;;;25.34;59.54;97726.75;4951276;29;20418;-75
2022/09/05 11:24:18;;;;;;;4.30;1.87;;;25.60;85.50;;;25.16;56.81;97728.91;4959137;28;20854;-74
2022/09/05 11:26:48;;;;;;;5.03;2.10;;;25.50;81.10;;;24.85;52.90;97723.97;4951723;29;20441;-74
2022/09/05 11:29:20;;;;;;;4.05;2.15;;;25.30;75.00;;;24.63;53.42;97724.38;4951543;29;20464;-75
2022/09/05 11:32:08;;;;;;;3.70;2.15;;;25.00;75.20;;;24.41;48.48;97724.75;4951543;29;20421;-75